createdAt,value
2023-05-10T00:00:34.135Z,37.38
2023-05-10T00:01:34.166Z,37.35
2023-05-10T00:02:34.296Z,37.34
2023-05-10T00:03:34.300Z,37.24
2023-05-10T00:04:34.264Z,37.31
2023-05-10T00:05:34.291Z,37.32
2023-05-10T00:06:34.411Z,37.26
2023-05-10T00:07:34.356Z,37.30
2023-05-10T00:08:34.397Z,37.34
2023-05-10T00:09:34.417Z,37.32
2023-05-10T00:10:34.461Z,37.43
2023-05-10T00:11:34.493Z,37.34
2023-05-10T00:12:34.503Z,37.30
2023-05-10T00:13:34.550Z,37.30
2023-05-10T00:14:34.577Z,37.30
2023-05-10T00:15:34.612Z,37.28
2023-05-10T00:16:34.764Z,37.26
2023-05-10T00:17:34.764Z,37.28
2023-05-10T00:18:34.714Z,37.28
2023-05-10T00:19:34.752Z,37.30
2023-05-10T00:20:34.779Z,37.34
2023-05-10T00:21:34.829Z,37.28
2023-05-10T00:22:34.844Z,37.34
2023-05-10T00:23:34.881Z,37.34
2023-05-10T00:24:34.916Z,37.32
2023-05-10T00:25:34.955Z,37.31
2023-05-10T00:26:35.059Z,37.31
2023-05-10T00:27:35.026Z,37.33
2023-05-10T00:28:35.058Z,37.35
2023-05-10T00:29:35.111Z,37.34
2023-05-10T00:30:35.169Z,37.31
2023-05-10T00:31:35.178Z,37.30
2023-05-10T00:32:35.311Z,37.34
2023-05-10T00:33:35.247Z,37.27
2023-05-10T00:34:35.275Z,37.35
2023-05-10T00:35:35.304Z,37.32
2023-05-10T00:36:35.397Z,37.34
2023-05-10T00:37:35.378Z,37.39
2023-05-10T00:38:35.421Z,37.39
2023-05-10T00:39:35.454Z,37.39
2023-05-10T00:40:35.491Z,37.37
2023-05-10T00:41:35.516Z,37.36
2023-05-10T00:42:35.551Z,37.41
2023-05-10T00:43:35.597Z,37.37
2023-05-10T00:44:35.645Z,37.33
2023-05-10T00:45:35.682Z,37.32
2023-05-10T00:46:35.727Z,37.36
2023-05-10T00:47:35.829Z,37.39
2023-05-10T00:48:35.778Z,37.36
2023-05-10T00:49:35.805Z,37.35
2023-05-10T00:50:35.854Z,37.37
2023-05-10T00:51:35.950Z,37.33
2023-05-10T00:52:35.909Z,37.31
2023-05-10T00:53:36.030Z,37.32
2023-05-10T00:54:35.968Z,37.33
2023-05-10T00:55:36.013Z,37.33
2023-05-10T00:56:36.037Z,37.39
2023-05-10T00:57:36.078Z,37.36
2023-05-10T00:58:36.114Z,37.32
2023-05-10T00:59:36.153Z,37.36
2023-05-10T01:00:36.187Z,37.34
2023-05-10T01:01:36.324Z,37.34
2023-05-10T01:02:36.328Z,37.40
2023-05-10T01:03:36.361Z,37.39
2023-05-10T01:04:36.374Z,37.39
2023-05-10T01:05:36.422Z,37.35
2023-05-10T01:06:36.391Z,37.41
2023-05-10T01:07:36.432Z,37.39
2023-05-10T01:08:36.469Z,37.37
2023-05-10T01:09:36.502Z,37.37
2023-05-10T01:10:36.542Z,37.38
2023-05-10T01:11:36.585Z,37.39
2023-05-10T01:12:36.683Z,37.39
2023-05-10T01:13:36.660Z,37.37
2023-05-10T01:14:36.698Z,37.33
2023-05-10T01:15:36.745Z,37.37
2023-05-10T01:16:36.769Z,37.39
2023-05-10T01:17:37.715Z,37.37
2023-05-10T01:18:36.846Z,37.39
2023-05-10T01:19:36.885Z,37.37
2023-05-10T01:20:36.913Z,37.37
2023-05-10T01:21:36.955Z,37.39
2023-05-10T01:22:37.000Z,37.39
2023-05-10T01:23:37.032Z,37.35
2023-05-10T01:24:37.079Z,37.38
2023-05-10T01:25:37.113Z,37.32
2023-05-10T01:26:37.164Z,37.38
2023-05-10T01:27:37.202Z,37.36
2023-05-10T01:28:37.240Z,37.39
2023-05-10T01:29:37.279Z,37.36
2023-05-10T01:30:37.317Z,37.37
2023-05-10T01:31:37.384Z,37.36
2023-05-10T01:32:37.425Z,37.37
2023-05-10T01:33:37.450Z,37.29
2023-05-10T01:34:37.470Z,37.31
2023-05-10T01:35:37.597Z,37.32
2023-05-10T01:36:37.557Z,37.32
2023-05-10T01:37:37.590Z,37.33
2023-05-10T01:38:37.648Z,37.35
2023-05-10T01:39:37.662Z,37.33
2023-05-10T01:40:37.689Z,37.35
2023-05-10T01:41:38.103Z,37.30
2023-05-10T01:42:37.767Z,37.33
2023-05-10T01:43:37.892Z,37.29
2023-05-10T01:44:37.860Z,37.33
2023-05-10T01:45:37.898Z,37.33
2023-05-10T01:46:37.992Z,37.35
2023-05-10T01:47:37.996Z,37.29
2023-05-10T01:48:38.009Z,37.30
2023-05-10T01:49:38.042Z,37.28
2023-05-10T01:50:38.088Z,37.30
2023-05-10T01:51:38.126Z,37.32
2023-05-10T01:52:38.170Z,37.33
2023-05-10T01:53:38.290Z,37.32
2023-05-10T01:54:38.248Z,37.31
2023-05-10T01:55:38.286Z,37.26
2023-05-10T01:56:38.330Z,37.35
2023-05-10T01:57:38.377Z,37.30
2023-05-10T01:58:38.419Z,37.34
2023-05-10T01:59:38.465Z,37.30
2023-05-10T02:00:38.537Z,37.33
2023-05-10T02:01:38.549Z,37.28
2023-05-10T02:02:38.598Z,37.26
2023-05-10T02:03:38.670Z,37.29
2023-05-10T02:04:38.670Z,37.29
2023-05-10T02:05:38.707Z,37.28
2023-05-10T02:06:38.750Z,37.28
2023-05-10T02:07:38.794Z,37.28
2023-05-10T02:08:38.840Z,37.28
2023-05-10T02:09:38.899Z,37.28
2023-05-10T02:10:38.918Z,37.27
2023-05-10T02:11:38.954Z,37.25
2023-05-10T02:12:38.990Z,37.28
2023-05-10T02:13:39.034Z,37.25
2023-05-10T02:14:39.083Z,37.25
2023-05-10T02:15:39.124Z,37.22
2023-05-10T02:16:39.210Z,37.26
2023-05-10T02:17:39.259Z,37.28
2023-05-10T02:18:39.242Z,37.25
2023-05-10T02:19:39.284Z,37.26
2023-05-10T02:20:39.343Z,37.26
2023-05-10T02:21:39.372Z,37.24
2023-05-10T02:22:39.410Z,37.20
2023-05-10T02:23:39.452Z,37.25
2023-05-10T02:24:39.489Z,37.22
2023-05-10T02:25:39.528Z,37.18
2023-05-10T02:26:39.566Z,37.20
2023-05-10T02:27:39.622Z,37.22
2023-05-10T02:28:39.769Z,37.18
2023-05-10T02:29:40.610Z,37.22
2023-05-10T02:30:39.733Z,37.20
2023-05-10T02:31:39.831Z,37.23
2023-05-10T02:32:39.841Z,37.22
2023-05-10T02:33:40.126Z,37.14
2023-05-10T02:34:39.885Z,37.20
2023-05-10T02:35:40.615Z,37.21
2023-05-10T02:36:39.972Z,37.20
2023-05-10T02:37:40.007Z,37.21
2023-05-10T02:38:40.068Z,37.19
2023-05-10T02:39:40.090Z,37.17
2023-05-10T02:40:40.146Z,37.21
2023-05-10T02:41:40.186Z,37.20
2023-05-10T02:42:40.224Z,37.13
2023-05-10T02:43:40.269Z,37.14
2023-05-10T02:44:40.392Z,37.17
2023-05-10T02:45:40.436Z,37.19
2023-05-10T02:46:40.393Z,37.18
2023-05-10T02:47:40.498Z,37.14
2023-05-10T02:48:40.558Z,37.12
2023-05-10T02:49:40.536Z,37.10
2023-05-10T02:50:40.574Z,37.17
2023-05-10T02:51:40.628Z,37.13
2023-05-10T02:52:40.681Z,37.18
2023-05-10T02:53:40.726Z,37.15
2023-05-10T02:54:40.747Z,37.14
2023-05-10T02:55:41.636Z,37.10
2023-05-10T02:56:40.835Z,37.15
2023-05-10T02:57:40.880Z,37.15
2023-05-10T02:58:40.921Z,37.14
2023-05-10T02:59:40.969Z,37.13
2023-05-10T03:00:41.003Z,37.13
2023-05-10T03:01:41.070Z,37.16
2023-05-10T03:02:41.122Z,37.19
2023-05-10T03:03:41.145Z,37.13
2023-05-10T03:04:41.221Z,37.12
2023-05-10T03:05:41.229Z,37.13
2023-05-10T03:06:42.132Z,37.13
2023-05-10T03:07:41.302Z,37.13
2023-05-10T03:08:41.352Z,37.14
2023-05-10T03:09:41.398Z,37.14
2023-05-10T03:10:41.441Z,37.15
2023-05-10T03:11:41.488Z,37.12
2023-05-10T03:12:41.609Z,37.13
2023-05-10T03:13:41.573Z,37.09
2023-05-10T03:14:41.622Z,37.10
2023-05-10T03:15:42.658Z,37.13
2023-05-10T03:16:44.178Z,37.08
2023-05-10T03:17:41.712Z,37.09
2023-05-10T03:18:41.678Z,37.09
2023-05-10T03:19:41.673Z,37.08
2023-05-10T03:20:41.655Z,37.09
2023-05-10T03:21:41.644Z,37.06
2023-05-10T03:22:41.633Z,37.08
2023-05-10T03:23:41.687Z,37.10
2023-05-10T03:24:41.650Z,37.04
2023-05-10T03:25:41.611Z,37.05
2023-05-10T03:26:41.604Z,37.03
2023-05-10T03:27:41.604Z,37.05
2023-05-10T03:28:41.598Z,37.03
2023-05-10T03:29:41.603Z,37.01
2023-05-10T03:30:41.575Z,37.05
2023-05-10T03:31:41.612Z,37.06
2023-05-10T03:32:41.575Z,37.03
2023-05-10T03:33:41.552Z,37.02
2023-05-10T03:34:41.523Z,36.98
2023-05-10T03:35:41.524Z,36.98
2023-05-10T03:36:41.503Z,37.01
2023-05-10T03:37:42.150Z,37.01
2023-05-10T03:38:41.486Z,37.01
2023-05-10T03:39:41.481Z,37.03
2023-05-10T03:40:41.456Z,37.01
2023-05-10T03:41:41.456Z,37.03
2023-05-10T03:42:41.447Z,37.03
2023-05-10T03:43:41.516Z,37.02
2023-05-10T03:44:41.426Z,36.97
2023-05-10T03:45:41.421Z,36.99
2023-05-10T03:46:41.453Z,36.99
2023-05-10T03:47:41.417Z,36.98
2023-05-10T03:48:41.406Z,36.98
2023-05-10T03:49:41.381Z,36.96
2023-05-10T03:50:41.369Z,36.94
2023-05-10T03:51:41.368Z,36.98
2023-05-10T03:52:41.339Z,36.94
2023-05-10T03:53:41.326Z,36.94
2023-05-10T03:54:41.655Z,36.97
2023-05-10T03:55:41.321Z,36.94
2023-05-10T03:56:41.322Z,36.94
2023-05-10T03:57:41.331Z,36.94
2023-05-10T03:58:41.376Z,36.93
2023-05-10T03:59:41.398Z,36.92
2023-05-10T04:00:41.458Z,36.98
2023-05-10T04:01:41.548Z,36.95
2023-05-10T04:02:41.699Z,36.94
2023-05-10T04:03:41.737Z,36.93
2023-05-10T04:04:41.660Z,36.93
2023-05-10T04:05:41.696Z,36.93
2023-05-10T04:06:41.767Z,36.94
2023-05-10T04:07:41.816Z,36.94
2023-05-10T04:08:41.850Z,36.90
2023-05-10T04:09:41.924Z,36.93
2023-05-10T04:10:41.957Z,36.90
2023-05-10T04:11:42.067Z,36.98
2023-05-10T04:12:42.086Z,36.91
2023-05-10T04:13:42.121Z,36.90
2023-05-10T04:14:42.224Z,36.91
2023-05-10T04:15:42.170Z,36.91
2023-05-10T04:16:42.275Z,36.90
2023-05-10T04:17:42.231Z,36.89
2023-05-10T04:18:42.292Z,36.86
2023-05-10T04:19:42.687Z,36.90
2023-05-10T04:20:42.242Z,36.89
2023-05-10T04:21:42.269Z,36.86
2023-05-10T04:22:42.282Z,36.89
2023-05-10T04:23:43.217Z,36.86
2023-05-10T04:24:42.316Z,36.82
2023-05-10T04:25:42.337Z,36.87
2023-05-10T04:26:42.364Z,36.90
2023-05-10T04:27:42.389Z,36.88
2023-05-10T04:28:42.410Z,36.86
2023-05-10T04:29:42.431Z,36.86
2023-05-10T04:30:42.557Z,36.89
2023-05-10T04:31:42.483Z,36.89
2023-05-10T04:32:42.562Z,36.86
2023-05-10T04:33:42.516Z,36.86
2023-05-10T04:34:42.593Z,36.85
2023-05-10T04:35:42.588Z,36.85
2023-05-10T04:36:42.581Z,36.89
2023-05-10T04:37:42.587Z,36.89
2023-05-10T04:38:42.608Z,36.87
2023-05-10T04:39:42.659Z,36.84
2023-05-10T04:40:42.649Z,36.86
2023-05-10T04:41:42.664Z,36.82
2023-05-10T04:42:42.742Z,36.80
2023-05-10T04:43:42.696Z,36.82
2023-05-10T04:44:42.705Z,36.83
2023-05-10T04:45:42.769Z,36.82
2023-05-10T04:46:42.753Z,36.82
2023-05-10T04:47:42.786Z,36.85
2023-05-10T04:48:42.782Z,36.81
2023-05-10T04:49:42.810Z,36.78
2023-05-10T04:50:42.818Z,36.81
2023-05-10T04:51:42.825Z,36.81
2023-05-10T04:52:42.852Z,36.75
2023-05-10T04:53:46.491Z,36.75
2023-05-10T04:54:43.859Z,36.78
2023-05-10T04:55:42.845Z,36.74
2023-05-10T04:56:42.842Z,36.77
2023-05-10T04:57:42.856Z,36.74
2023-05-10T04:58:42.829Z,36.73
2023-05-10T04:59:42.848Z,36.85
2023-05-10T05:00:42.845Z,36.78
2023-05-10T05:01:42.820Z,36.76
2023-05-10T05:02:42.910Z,36.72
2023-05-10T05:03:42.884Z,36.76
2023-05-10T05:04:42.785Z,36.78
2023-05-10T05:05:42.775Z,36.78
2023-05-10T05:06:42.766Z,36.79
2023-05-10T05:07:42.757Z,36.74
2023-05-10T05:08:42.745Z,36.77
2023-05-10T05:09:42.749Z,36.74
2023-05-10T05:10:42.734Z,36.73
2023-05-10T05:11:42.732Z,36.77
2023-05-10T05:12:42.787Z,36.70
2023-05-10T05:13:42.715Z,36.73
2023-05-10T05:14:42.701Z,36.70
2023-05-10T05:15:42.686Z,36.74
2023-05-10T05:16:42.770Z,36.76
2023-05-10T05:17:42.810Z,36.76
2023-05-10T05:18:42.657Z,36.72
2023-05-10T05:19:42.651Z,37.12
2023-05-10T05:20:42.626Z,37.17
2023-05-10T05:21:43.184Z,37.18
2023-05-10T05:22:42.618Z,37.22
2023-05-10T05:23:42.604Z,37.39
2023-05-10T05:24:42.603Z,37.48
2023-05-10T05:25:42.615Z,37.37
2023-05-10T05:26:42.591Z,37.82
2023-05-10T05:27:42.585Z,37.74
2023-05-10T05:28:42.580Z,37.86
2023-05-10T05:29:42.590Z,38.05
2023-05-10T05:30:43.182Z,38.23
2023-05-10T05:31:44.216Z,38.24
2023-05-10T05:32:42.590Z,38.31
2023-05-10T05:33:42.558Z,38.64
2023-05-10T05:34:42.597Z,39.04
2023-05-10T05:35:42.537Z,39.22
2023-05-10T05:36:42.533Z,39.43
2023-05-10T05:37:42.597Z,39.51
2023-05-10T05:38:42.627Z,39.89
2023-05-10T05:39:42.682Z,40.05
2023-05-10T05:40:42.714Z,40.14
2023-05-10T05:41:42.763Z,40.25
2023-05-10T05:42:42.815Z,40.45
2023-05-10T05:43:42.847Z,40.66
2023-05-10T05:44:42.880Z,40.69
2023-05-10T05:45:43.786Z,40.83
2023-05-10T05:46:43.693Z,41.05
2023-05-10T05:47:42.972Z,41.00
2023-05-10T05:48:42.983Z,41.16
2023-05-10T05:49:43.011Z,41.24
2023-05-10T05:50:43.030Z,41.30
2023-05-10T05:51:43.060Z,41.50
2023-05-10T05:52:43.087Z,41.47
2023-05-10T05:53:43.111Z,41.36
2023-05-10T05:54:43.120Z,41.48
2023-05-10T05:55:43.138Z,41.44
2023-05-10T05:56:43.154Z,41.53
2023-05-10T05:57:43.197Z,41.55
2023-05-10T05:58:43.200Z,41.54
2023-05-10T05:59:43.203Z,41.73
2023-05-10T06:00:43.230Z,41.70
2023-05-10T06:01:43.277Z,41.79
2023-05-10T06:02:43.374Z,41.85
2023-05-10T06:03:43.295Z,41.96
2023-05-10T06:04:44.880Z,41.99
2023-05-10T06:05:43.276Z,42.14
2023-05-10T06:06:43.276Z,42.13
2023-05-10T06:07:43.299Z,42.15
2023-05-10T06:08:43.288Z,42.18
2023-05-10T06:09:43.289Z,42.37
2023-05-10T06:10:43.292Z,42.47
2023-05-10T06:11:43.285Z,42.63
2023-05-10T06:12:43.281Z,42.57
2023-05-10T06:13:43.308Z,42.75
2023-05-10T06:14:43.281Z,42.76
2023-05-10T06:15:43.265Z,42.90
2023-05-10T06:16:43.293Z,42.92
2023-05-10T06:17:43.360Z,42.91
2023-05-10T06:18:43.261Z,42.95
2023-05-10T06:19:43.293Z,42.96
2023-05-10T06:20:43.242Z,43.09
2023-05-10T06:21:44.201Z,43.17
2023-05-10T06:22:43.216Z,42.97
2023-05-10T06:23:43.215Z,41.98
2023-05-10T06:24:43.237Z,42.30
2023-05-10T06:25:43.285Z,42.03
2023-05-10T06:26:43.314Z,42.10
2023-05-10T06:27:43.357Z,37.41
2023-05-10T06:28:43.381Z,38.18
2023-05-10T06:29:43.439Z,37.41
2023-05-10T06:30:43.459Z,37.95
2023-05-10T06:31:43.681Z,38.03
2023-05-10T06:32:43.543Z,38.72
2023-05-10T06:33:43.625Z,38.60
2023-05-10T06:34:43.682Z,38.88
2023-05-10T06:35:44.713Z,39.38
2023-05-10T06:36:43.792Z,39.90
2023-05-10T06:37:43.925Z,40.12
2023-05-10T06:38:43.927Z,40.48
2023-05-10T06:39:43.989Z,40.64
2023-05-10T06:40:44.055Z,40.83
2023-05-10T06:41:44.071Z,40.77
2023-05-10T06:42:44.092Z,40.78
2023-05-10T06:43:44.156Z,40.79
2023-05-10T06:44:44.200Z,40.83
2023-05-10T06:45:44.213Z,40.70
2023-05-10T06:46:44.326Z,40.60
2023-05-10T06:47:44.296Z,40.47
2023-05-10T06:48:44.323Z,40.60
2023-05-10T06:49:44.377Z,40.43
2023-05-10T06:50:44.437Z,40.49
2023-05-10T06:51:44.466Z,40.45
2023-05-10T06:52:44.485Z,40.42
2023-05-10T06:53:44.469Z,40.34
2023-05-10T06:54:44.490Z,38.11
2023-05-10T06:55:44.547Z,37.32
2023-05-10T06:56:44.582Z,37.38
2023-05-10T06:57:44.599Z,37.18
2023-05-10T06:58:44.672Z,36.63
2023-05-10T06:59:45.294Z,37.17
2023-05-10T07:00:44.900Z,37.55
2023-05-10T07:01:44.869Z,37.88
2023-05-10T07:02:44.897Z,38.03
2023-05-10T07:03:44.957Z,38.15
2023-05-10T07:04:45.047Z,38.30
2023-05-10T07:05:45.018Z,38.28
2023-05-10T07:06:45.014Z,38.11
2023-05-10T07:07:45.038Z,37.94
2023-05-10T07:08:45.017Z,38.08
2023-05-10T07:09:45.052Z,38.11
2023-05-10T07:10:45.097Z,38.14
2023-05-10T07:11:45.159Z,37.91
2023-05-10T07:12:45.410Z,37.68
2023-05-10T07:13:45.330Z,37.58
2023-05-10T07:14:45.349Z,37.46
2023-05-10T07:15:45.409Z,37.59
2023-05-10T07:16:45.711Z,37.99
2023-05-10T07:17:46.090Z,38.24
2023-05-10T07:18:45.544Z,38.18
2023-05-10T07:19:45.621Z,38.15
2023-05-10T07:20:46.318Z,38.06
2023-05-10T07:21:45.765Z,38.11
2023-05-10T07:22:45.794Z,38.22
2023-05-10T07:23:45.848Z,38.18
2023-05-10T07:24:45.893Z,38.19
2023-05-10T07:25:45.919Z,38.23
2023-05-10T07:26:45.960Z,38.23
2023-05-10T07:27:45.987Z,37.91
2023-05-10T07:28:46.729Z,38.20
2023-05-10T07:29:46.081Z,38.10
2023-05-10T07:30:46.103Z,37.99
2023-05-10T07:31:46.197Z,38.01
2023-05-10T07:32:46.208Z,38.04
2023-05-10T07:33:46.191Z,38.01
2023-05-10T07:34:46.233Z,38.00
2023-05-10T07:35:46.257Z,38.21
2023-05-10T07:36:46.278Z,38.01
2023-05-10T07:37:46.293Z,37.87
2023-05-10T07:38:46.328Z,37.93
2023-05-10T07:39:46.359Z,37.94
2023-05-10T07:40:46.377Z,38.10
2023-05-10T07:41:46.397Z,37.90
2023-05-10T07:42:46.422Z,37.90
2023-05-10T07:43:46.513Z,38.04
2023-05-10T07:44:46.441Z,38.03
2023-05-10T07:45:46.503Z,38.01
2023-05-10T07:46:46.485Z,37.84
2023-05-10T07:47:46.498Z,37.91
2023-05-10T07:48:46.499Z,37.55
2023-05-10T07:49:46.516Z,37.30
2023-05-10T07:50:46.540Z,37.79
2023-05-10T07:51:46.618Z,37.50
2023-05-10T07:52:46.605Z,37.33
2023-05-10T07:53:46.562Z,37.52
2023-05-10T07:54:46.584Z,37.48
2023-05-10T07:55:46.603Z,37.74
2023-05-10T07:56:46.591Z,37.45
2023-05-10T07:57:46.608Z,36.96
2023-05-10T07:58:46.610Z,37.48
2023-05-10T07:59:46.764Z,37.31
2023-05-10T08:00:46.609Z,37.18
2023-05-10T08:01:46.620Z,37.04
2023-05-10T08:02:47.722Z,36.95
2023-05-10T08:03:46.693Z,36.07
2023-05-10T08:04:46.675Z,35.92
2023-05-10T08:05:46.581Z,35.83
2023-05-10T08:06:46.583Z,35.61
2023-05-10T08:07:46.581Z,35.38
2023-05-10T08:08:46.590Z,35.42
2023-05-10T08:09:46.580Z,35.56
2023-05-10T08:10:46.585Z,35.79
2023-05-10T08:11:46.566Z,35.87
2023-05-10T08:12:46.553Z,35.87
2023-05-10T08:13:46.562Z,35.89
2023-05-10T08:14:46.550Z,35.86
2023-05-10T08:15:46.572Z,35.86
2023-05-10T08:16:46.531Z,35.89
2023-05-10T08:17:46.562Z,35.83
2023-05-10T08:18:46.651Z,35.65
2023-05-10T08:19:46.779Z,36.03
2023-05-10T08:20:46.654Z,36.30
2023-05-10T08:21:46.669Z,36.31
2023-05-10T08:22:47.019Z,36.57
2023-05-10T08:23:46.838Z,36.15
2023-05-10T08:24:46.838Z,36.43
2023-05-10T08:25:46.891Z,36.22
2023-05-10T08:26:46.960Z,35.73
2023-05-10T08:27:47.012Z,36.50
2023-05-10T08:28:47.087Z,36.53
2023-05-10T08:29:50.411Z,36.64
2023-05-10T08:30:47.145Z,36.66
2023-05-10T08:31:47.279Z,36.73
2023-05-10T08:32:47.259Z,36.71
2023-05-10T08:33:47.158Z,36.74
2023-05-10T08:34:47.749Z,36.75
2023-05-10T08:35:47.146Z,36.74
2023-05-10T08:36:47.123Z,36.74
2023-05-10T08:37:47.188Z,36.72
2023-05-10T08:38:47.182Z,36.70
2023-05-10T08:39:47.161Z,36.68
2023-05-10T08:40:47.123Z,36.46
2023-05-10T08:41:47.108Z,36.58
2023-05-10T08:42:47.105Z,36.69
2023-05-10T08:43:47.126Z,36.65
2023-05-10T08:44:49.352Z,36.66
2023-05-10T08:45:47.248Z,36.70
2023-05-10T08:46:47.344Z,36.75
2023-05-10T08:47:47.373Z,36.84
2023-05-10T08:48:47.461Z,36.77
2023-05-10T08:49:47.432Z,36.86
2023-05-10T08:50:47.505Z,36.82
2023-05-10T08:51:47.544Z,36.88
2023-05-10T08:52:47.605Z,36.91
2023-05-10T08:53:47.666Z,37.05
2023-05-10T08:54:47.713Z,37.07
2023-05-10T08:55:47.859Z,37.07
2023-05-10T08:56:49.750Z,37.11
2023-05-10T08:57:47.889Z,37.15
2023-05-10T08:58:48.002Z,37.15
2023-05-10T08:59:47.982Z,37.19
2023-05-10T09:00:48.049Z,37.26
2023-05-10T09:01:48.075Z,37.29
2023-05-10T09:02:48.149Z,37.30
2023-05-10T09:03:48.252Z,37.35
2023-05-10T09:04:48.281Z,37.37
2023-05-10T09:05:48.283Z,37.36
2023-05-10T09:06:48.323Z,37.38
2023-05-10T09:07:48.368Z,37.36
2023-05-10T09:08:48.430Z,37.36
2023-05-10T09:09:48.464Z,37.46
2023-05-10T09:10:48.594Z,37.45
2023-05-10T09:11:48.551Z,37.45
2023-05-10T09:12:48.657Z,37.47
2023-05-10T09:13:48.620Z,37.49
2023-05-10T09:14:48.657Z,37.52
2023-05-10T09:15:48.708Z,37.55
2023-05-10T09:16:48.830Z,37.07
2023-05-10T09:17:48.854Z,37.08
2023-05-10T09:18:48.853Z,36.83
2023-05-10T09:19:48.916Z,36.94
2023-05-10T09:20:48.953Z,37.17
2023-05-10T09:21:49.000Z,37.29
2023-05-10T09:22:49.061Z,37.33
2023-05-10T09:23:49.106Z,37.24
2023-05-10T09:24:49.159Z,37.25
2023-05-10T09:25:49.217Z,37.29
2023-05-10T09:26:49.439Z,37.25
2023-05-10T09:27:49.344Z,37.29
2023-05-10T09:28:49.365Z,37.26
2023-05-10T09:29:50.277Z,37.22
2023-05-10T09:30:49.503Z,37.23
2023-05-10T09:31:50.268Z,37.22
2023-05-10T09:32:49.637Z,37.27
2023-05-10T09:33:49.621Z,37.27
2023-05-10T09:34:49.684Z,37.28
2023-05-10T09:35:49.717Z,37.26
2023-05-10T09:36:49.768Z,37.27
2023-05-10T09:37:49.824Z,37.33
2023-05-10T09:38:49.889Z,37.31
2023-05-10T09:39:49.929Z,37.29
2023-05-10T09:40:49.989Z,37.31
2023-05-10T09:41:50.032Z,37.29
2023-05-10T09:42:50.097Z,37.29
2023-05-10T09:43:50.163Z,37.32
2023-05-10T09:44:50.215Z,37.30
2023-05-10T09:45:50.271Z,37.28
2023-05-10T09:46:50.321Z,37.30
2023-05-10T09:47:50.432Z,37.33
2023-05-10T09:48:50.436Z,37.30
2023-05-10T09:49:50.495Z,37.33
2023-05-10T09:50:50.554Z,37.33
2023-05-10T09:51:50.706Z,37.36
2023-05-10T09:52:51.207Z,37.34
2023-05-10T09:53:50.719Z,37.34
2023-05-10T09:54:51.286Z,37.31
2023-05-10T09:55:50.835Z,37.35
2023-05-10T09:56:50.903Z,37.32
2023-05-10T09:57:50.964Z,37.31
2023-05-10T09:58:50.999Z,37.32
2023-05-10T09:59:51.070Z,37.32
2023-05-10T10:00:51.128Z,37.36
2023-05-10T10:01:51.238Z,37.32
2023-05-10T10:02:51.818Z,37.37
2023-05-10T10:03:51.305Z,37.32
2023-05-10T10:04:51.413Z,37.35
2023-05-10T10:05:51.426Z,37.33
2023-05-10T10:06:51.468Z,37.33
2023-05-10T10:07:51.511Z,37.32
2023-05-10T10:08:51.573Z,37.37
2023-05-10T10:09:52.294Z,37.37
2023-05-10T10:10:51.717Z,37.33
2023-05-10T10:11:51.748Z,37.35
2023-05-10T10:12:51.804Z,37.33
2023-05-10T10:13:52.800Z,37.33
2023-05-10T10:14:51.934Z,37.29
2023-05-10T10:15:52.184Z,37.32
2023-05-10T10:17:05.491Z,37.33
2023-05-10T10:17:53.165Z,37.32
2023-05-10T10:18:52.097Z,37.34
2023-05-10T10:19:52.027Z,37.29
2023-05-10T10:20:52.012Z,37.30
2023-05-10T10:21:52.010Z,37.26
2023-05-10T10:22:52.005Z,37.33
2023-05-10T10:23:52.003Z,37.33
2023-05-10T10:24:51.985Z,37.27
2023-05-10T10:25:51.981Z,37.29
2023-05-10T10:26:52.032Z,37.29
2023-05-10T10:27:52.167Z,37.28
2023-05-10T10:28:52.130Z,37.28
2023-05-10T10:29:52.174Z,37.23
2023-05-10T10:30:52.237Z,37.25
2023-05-10T10:31:52.329Z,37.25
2023-05-10T10:32:52.475Z,37.16
2023-05-10T10:33:52.379Z,37.20
2023-05-10T10:34:52.432Z,37.24
2023-05-10T10:35:52.474Z,37.19
2023-05-10T10:36:52.502Z,37.24
2023-05-10T10:37:52.645Z,37.21
2023-05-10T10:38:52.597Z,37.16
2023-05-10T10:39:52.650Z,37.19
2023-05-10T10:40:52.705Z,37.21
2023-05-10T10:41:52.756Z,37.24
2023-05-10T10:42:52.808Z,37.21
2023-05-10T10:43:52.863Z,37.18
2023-05-10T10:44:52.923Z,37.24
2023-05-10T10:45:53.001Z,37.19
2023-05-10T10:46:53.103Z,37.19
2023-05-10T10:47:53.136Z,37.21
2023-05-10T10:48:53.177Z,37.21
2023-05-10T10:49:53.247Z,37.23
2023-05-10T10:50:53.316Z,37.17
2023-05-10T10:51:53.448Z,37.18
2023-05-10T10:52:53.489Z,37.17
2023-05-10T10:53:53.508Z,37.17
2023-05-10T10:54:53.527Z,37.19
2023-05-10T10:55:53.574Z,37.15
2023-05-10T10:56:53.636Z,37.15
2023-05-10T10:57:53.684Z,37.18
2023-05-10T10:58:53.746Z,37.16
2023-05-10T10:59:53.803Z,37.09
2023-05-10T11:00:53.955Z,37.16
2023-05-10T11:01:54.319Z,37.12
2023-05-10T11:02:54.006Z,37.15
2023-05-10T11:03:54.096Z,37.15
2023-05-10T11:04:54.136Z,37.16
2023-05-10T11:05:54.149Z,37.12
2023-05-10T11:06:54.202Z,37.10
2023-05-10T11:07:54.325Z,37.10
2023-05-10T11:08:54.324Z,37.09
2023-05-10T11:09:54.364Z,37.14
2023-05-10T11:10:54.433Z,37.10
2023-05-10T11:11:54.463Z,37.09
2023-05-10T11:12:54.465Z,37.13
2023-05-10T11:13:54.492Z,37.18
2023-05-10T11:14:54.528Z,37.07
2023-05-10T11:15:54.593Z,37.14
2023-05-10T11:16:54.647Z,37.10
2023-05-10T11:17:54.704Z,37.08
2023-05-10T11:18:54.702Z,37.07
2023-05-10T11:19:54.722Z,37.08
2023-05-10T11:20:54.769Z,37.08
2023-05-10T11:21:54.788Z,37.10
2023-05-10T11:22:54.835Z,37.06
2023-05-10T11:23:54.895Z,37.03
2023-05-10T11:24:55.090Z,37.06
2023-05-10T11:25:54.984Z,37.06
2023-05-10T11:26:55.022Z,37.03
2023-05-10T11:27:55.057Z,37.06
2023-05-10T11:28:55.099Z,37.03
2023-05-10T11:29:55.164Z,37.02
2023-05-10T11:30:55.212Z,37.01
2023-05-10T11:31:55.253Z,37.02
2023-05-10T11:32:55.339Z,37.03
2023-05-10T11:33:55.327Z,36.99
2023-05-10T11:34:55.383Z,37.03
2023-05-10T11:35:55.453Z,37.01
2023-05-10T11:36:55.485Z,37.01
2023-05-10T11:37:55.551Z,37.01
2023-05-10T11:38:55.593Z,36.98
2023-05-10T11:39:55.629Z,37.00
2023-05-10T11:40:55.695Z,36.97
2023-05-10T11:41:55.725Z,36.97
2023-05-10T11:42:55.758Z,37.02
2023-05-10T11:43:55.813Z,37.02
2023-05-10T11:44:55.850Z,36.97
2023-05-10T11:45:55.955Z,36.98
2023-05-10T11:46:55.920Z,37.00
2023-05-10T11:47:56.003Z,36.99
2023-05-10T11:48:55.967Z,36.95
2023-05-10T11:49:56.089Z,36.95
2023-05-10T11:50:56.023Z,36.94
2023-05-10T11:51:56.049Z,36.95
2023-05-10T11:52:56.099Z,36.95
2023-05-10T11:53:56.171Z,36.97
2023-05-10T11:54:56.186Z,36.92
2023-05-10T11:55:56.171Z,36.90
2023-05-10T11:56:56.174Z,36.92
2023-05-10T11:57:56.186Z,36.91
2023-05-10T11:58:56.205Z,36.95
2023-05-10T11:59:56.243Z,36.92
2023-05-10T12:00:56.290Z,36.89
2023-05-10T12:01:56.257Z,36.86
2023-05-10T12:02:56.368Z,36.90
2023-05-10T12:03:57.004Z,36.89
2023-05-10T12:04:56.884Z,36.94
2023-05-10T12:05:56.275Z,36.89
2023-05-10T12:06:56.315Z,36.89
2023-05-10T12:07:56.339Z,36.92
2023-05-10T12:08:56.361Z,36.86
2023-05-10T12:09:56.365Z,36.90
2023-05-10T12:10:56.859Z,36.90
2023-05-10T12:11:56.430Z,36.85
2023-05-10T12:12:56.441Z,36.90
2023-05-10T12:13:56.459Z,36.85
2023-05-10T12:14:56.459Z,36.86
2023-05-10T12:15:56.516Z,36.86
2023-05-10T12:16:56.565Z,36.85
2023-05-10T12:17:56.493Z,36.88
2023-05-10T12:18:56.548Z,36.85
2023-05-10T12:19:56.498Z,36.82
2023-05-10T12:20:56.509Z,36.83
2023-05-10T12:21:56.511Z,36.82
2023-05-10T12:22:57.810Z,36.84
2023-05-10T12:23:56.494Z,36.83
2023-05-10T12:24:56.495Z,36.85
2023-05-10T12:25:56.477Z,36.75
2023-05-10T12:26:56.490Z,37.80
2023-05-10T12:27:56.464Z,38.37
2023-05-10T12:28:56.461Z,38.13
2023-05-10T12:29:56.469Z,38.15
2023-05-10T12:30:56.482Z,37.92
2023-05-10T12:31:56.512Z,38.42
2023-05-10T12:32:56.957Z,38.57
2023-05-10T12:33:56.472Z,38.66
2023-05-10T12:34:56.478Z,38.73
2023-05-10T12:35:56.403Z,39.06
2023-05-10T12:36:56.409Z,38.90
2023-05-10T12:37:57.359Z,38.89
2023-05-10T12:38:56.411Z,38.87
2023-05-10T12:39:56.392Z,38.68
2023-05-10T12:40:56.405Z,38.52
2023-05-10T12:41:56.866Z,38.38
2023-05-10T12:42:56.442Z,38.30
2023-05-10T12:43:56.370Z,38.28
2023-05-10T12:44:56.440Z,38.21
2023-05-10T12:45:56.418Z,38.17
2023-05-10T12:46:56.353Z,38.12
2023-05-10T12:47:56.410Z,38.06
2023-05-10T12:49:07.720Z,38.08
2023-05-10T12:49:57.327Z,38.09
2023-05-10T12:50:56.303Z,38.06
2023-05-10T12:51:56.292Z,38.12
2023-05-10T12:52:56.280Z,38.08